Time;durP1;ratioP1;P1;durP2;ratioP2;P2;SDS_P1;SDS_P2;PMS_P1;PMS_P2;Temp;Humidity;BMP_temperature;BMP_pressure;BME280_temperature;BME280_humidity;BME280_pressure;Samples;Min_cycle;Max_cycle;Signal;HPM_P1;HPM_P2
2024/03/01 00:00:35;;;;;;;51.33;28.02;;;;;;;5.78;75.30;95669.03;4919914;29;20130;-78
2024/03/01 00:03:05;;;;;;;55.55;28.88;;;;;;;5.75;75.38;95669.38;4919694;29;20051;-78
2024/03/01 00:05:33;;;;;;;53.08;27.75;;;;;;;5.72;75.86;95664.53;4918582;29;20048;-78
2024/03/01 00:08:02;;;;;;;57.90;28.48;;;;;;;5.71;76.17;95662.94;4918489;29;20088;-78
2024/03/01 00:10:29;;;;;;;47.92;28.15;;;;;;;5.72;76.01;95667.13;4932886;29;20067;-78
2024/03/01 00:12:57;;;;;;;56.20;30.40;;;;;;;5.74;76.27;95667.75;4941305;29;20040;-78
2024/03/01 00:15:25;;;;;;;54.85;29.27;;;;;;;5.74;76.24;95667.75;4941886;29;20107;-78
2024/03/01 00:17:52;;;;;;;50.20;28.60;;;;;;;5.75;76.47;95678.91;4934374;29;20063;-78
2024/03/01 00:20:21;;;;;;;53.05;28.10;;;;;;;5.76;76.50;95689.09;4918746;29;20052;-78
2024/03/01 00:22:52;;;;;;;47.05;26.85;;;;;;;5.78;76.15;95689.72;4918794;29;20059;-78
2024/03/01 00:25:21;;;;;;;52.05;27.55;;;;;;;5.80;76.11;95683.59;4934571;29;20081;-78
2024/03/01 00:27:48;;;;;;;51.22;27.13;;;;;;;5.79;76.05;95685.34;4918268;29;20055;-77
2024/03/01 00:30:16;;;;;;;54.28;29.00;;;;;;;5.79;76.20;95693.13;4918119;29;20143;-78
2024/03/01 00:32:44;;;;;;;46.42;26.88;;;;;;;5.83;76.17;95691.78;4918818;29;20090;-78
2024/03/01 00:35:11;;;;;;;46.45;25.83;;;;;;;5.88;76.20;95686.09;4918723;29;20060;-78
2024/03/01 00:37:39;;;;;;;51.00;27.75;;;;;;;5.93;75.99;95679.44;4918708;29;20116;-78
2024/03/01 00:40:08;;;;;;;56.00;28.83;;;;;;;5.99;76.04;95688.28;4918127;29;20048;-78
2024/03/01 00:42:39;;;;;;;50.85;27.83;;;;;;;6.00;75.98;95689.91;4918186;29;20056;-78
2024/03/01 00:45:07;;;;;;;45.80;26.45;;;;;;;6.02;75.63;95690.53;4917967;29;20100;-78
2024/03/01 00:47:34;;;;;;;51.67;27.15;;;;;;;6.03;76.24;95681.78;4918223;29;20080;-78
2024/03/01 00:50:02;;;;;;;50.38;27.30;;;;;;;6.06;76.19;95686.63;4920107;29;20054;-78
2024/03/01 00:52:30;;;;;;;47.97;28.20;;;;;;;6.10;76.20;95687.91;4920657;29;20081;-78
2024/03/01 00:54:57;;;;;;;45.22;25.60;;;;;;;6.16;76.35;95687.16;4918175;29;20543;-78
2024/03/01 00:57:25;;;;;;;48.28;27.10;;;;;;;6.19;76.00;95683.44;4917833;29;20054;-77
2024/03/01 00:59:54;;;;;;;49.35;28.60;;;;;;;6.18;75.25;95694.75;4917450;29;20135;-78
2024/03/01 01:02:21;;;;;;;50.85;28.45;;;;;;;6.15;75.00;95690.75;4943797;23;20051;-78
2024/03/01 01:05:08;;;;;;;47.65;27.20;;;;;;;6.13;75.06;95687.53;4936465;29;20056;-78
2024/03/01 01:07:35;;;;;;;50.72;27.40;;;;;;;6.14;75.27;95683.97;4936755;29;20120;-78
2024/03/01 01:10:04;;;;;;;48.47;28.02;;;;;;;6.17;75.17;95681.03;4936604;29;20290;-78
2024/03/01 01:12:32;;;;;;;47.47;28.67;;;;;;;6.17;74.80;95677.63;4937040;29;20118;-78
2024/03/01 01:15:02;;;;;;;49.60;27.08;;;;;;;6.15;75.18;95672.63;4936504;29;20083;-78
2024/03/01 01:17:30;;;;;;;44.42;25.27;;;;;;;6.17;75.85;95673.25;4936867;29;20056;-78
2024/03/01 01:19:59;;;;;;;45.90;26.75;;;;;;;6.25;75.99;95676.72;4935787;29;20064;-78
2024/03/01 01:22:27;;;;;;;48.28;26.30;;;;;;;6.30;76.23;95680.41;4936333;29;20047;-78
2024/03/01 01:24:55;;;;;;;48.75;27.73;;;;;;;6.32;75.40;95675.03;4936152;29;20093;-78
2024/03/01 01:27:23;;;;;;;47.40;27.92;;;;;;;6.29;74.55;95675.41;4936223;29;20063;-78
2024/03/01 01:29:50;;;;;;;43.97;25.73;;;;;;;6.20;74.18;95682.44;4936121;29;20051;-78
2024/03/01 01:32:19;;;;;;;47.42;27.35;;;;;;;6.18;75.19;95677.44;4936380;29;20083;-78
2024/03/01 01:34:47;;;;;;;50.15;27.00;;;;;;;6.21;75.53;95688.41;4936018;29;20095;-78
2024/03/01 01:37:14;;;;;;;50.92;27.38;;;;;;;6.20;75.75;95682.44;4936124;29;20055;-78
2024/03/01 01:39:42;;;;;;;47.88;26.80;;;;;;;6.20;75.15;95679.84;4940122;29;20122;-78
2024/03/01 01:42:10;;;;;;;47.88;26.73;;;;;;;6.15;74.36;95675.22;4953360;29;20052;-78
2024/03/01 01:44:38;;;;;;;48.00;27.20;;;;;;;6.07;73.57;95677.88;4952097;29;20052;-78
2024/03/01 01:47:05;;;;;;;45.60;25.77;;;;;;;6.03;74.09;95675.81;4951980;29;20068;-78
2024/03/01 01:49:34;;;;;;;47.10;26.20;;;;;;;5.97;73.82;95672.97;4951273;29;20054;-78
2024/03/01 01:52:03;;;;;;;42.40;25.67;;;;;;;5.91;73.50;95673.63;4951890;29;20047;-78
2024/03/01 01:54:31;;;;;;;49.60;26.15;;;;;;;5.89;73.38;95664.44;4951545;29;20047;-78
2024/03/01 01:56:59;;;;;;;41.22;24.10;;;;;;;5.87;73.15;95661.22;4937296;29;20047;-78
2024/03/01 01:59:28;;;;;;;47.60;27.48;;;;;;;5.84;72.79;95661.53;4936089;29;20476;-78
2024/03/01 02:01:56;;;;;;;41.00;25.55;;;;;;;5.78;72.64;95660.47;4935737;29;20111;-78
2024/03/01 02:04:24;;;;;;;43.72;26.23;;;;;;;5.74;72.56;95670.34;4935609;29;20061;-78
2024/03/01 02:06:53;;;;;;;45.60;27.17;;;;;;;5.69;72.56;95664.09;4935493;29;20106;-78
2024/03/01 02:09:21;;;;;;;50.72;26.48;;;;;;;5.63;72.78;95655.25;4935717;29;20058;-78
2024/03/01 02:11:49;;;;;;;43.35;25.27;;;;;;;5.55;72.53;95653.53;4935903;29;20134;-78
2024/03/01 02:14:16;;;;;;;48.35;26.15;;;;;;;5.47;72.66;95652.81;4935625;29;20055;-78
2024/03/01 02:16:44;;;;;;;49.58;27.35;;;;;;;5.41;72.75;95656.88;4935476;29;20526;-78
2024/03/01 02:19:14;;;;;;;43.15;25.15;;;;;;;5.37;72.64;95661.56;4935937;29;20094;-78
2024/03/01 02:21:53;;;;;;;52.45;26.55;;;;;;;5.34;73.07;95656.75;4935570;29;20054;-79
2024/03/01 02:24:22;;;;;;;40.70;24.65;;;;;;;5.35;74.16;95662.72;4935536;29;20056;-78
2024/03/01 02:26:53;;;;;;;43.80;25.13;;;;;;;5.40;74.49;95654.44;4936824;29;20072;-78
2024/03/01 02:29:21;;;;;;;52.80;27.70;;;;;;;5.43;74.02;95654.13;4946714;29;20063;-78
2024/03/01 02:31:48;;;;;;;46.50;26.33;;;;;;;5.43;74.23;95648.94;4952314;29;20071;-78
2024/03/01 02:34:16;;;;;;;45.28;24.67;;;;;;;5.46;74.29;95643.41;4952443;29;20044;-78
2024/03/01 02:36:44;;;;;;;44.92;25.08;;;;;;;5.46;73.63;95649.38;4940007;29;20062;-78
2024/03/01 02:39:17;;;;;;;46.67;28.10;;;;;;;5.39;73.21;95656.25;4938110;29;20055;-78
2024/03/01 02:41:47;;;;;;;45.88;25.35;;;;;;;5.31;73.21;95651.94;4937060;29;20051;-78
2024/03/01 02:44:15;;;;;;;45.80;26.30;;;;;;;5.23;73.28;95651.19;4936927;29;20496;-78
2024/03/01 02:46:43;;;;;;;45.78;25.45;;;;;;;5.17;73.69;95639.75;4937020;29;20055;-78
2024/03/01 02:49:10;;;;;;;49.95;26.83;;;;;;;5.12;73.53;95639.47;4936758;29;20102;-78
2024/03/01 02:51:39;;;;;;;45.85;25.42;;;;;;;5.11;73.59;95640.41;4936279;29;20058;-78
2024/03/01 02:54:07;;;;;;;44.15;26.05;;;;;;;5.06;73.27;95638.34;4936145;29;20476;-78
2024/03/01 02:56:35;;;;;;;48.30;27.42;;;;;;;4.97;73.14;95638.56;4936239;29;20107;-79
2024/03/01 02:59:03;;;;;;;44.95;26.98;;;;;;;4.91;73.62;95635.69;4936392;29;20048;-78
2024/03/01 03:01:32;;;;;;;42.10;25.55;;;;;;;4.92;73.91;95639.88;4936031;29;20048;-78
2024/03/01 03:03:59;;;;;;;47.90;25.15;;;;;;;4.97;73.97;95623.06;4935762;29;20051;-78
2024/03/01 03:06:27;;;;;;;46.75;26.42;;;;;;;4.98;73.78;95622.88;4935977;29;20071;-78
2024/03/01 03:08:55;;;;;;;50.25;26.60;;;;;;;4.97;73.49;95617.91;4936155;29;20100;-78
2024/03/01 03:11:22;;;;;;;49.28;25.33;;;;;;;4.94;73.56;95621.59;4936143;29;20469;-78
2024/03/01 03:13:50;;;;;;;42.25;23.40;;;;;;;4.92;74.36;95629.56;4936297;29;20470;-78
2024/03/01 03:16:19;;;;;;;40.75;25.38;;;;;;;4.97;75.88;95628.25;4935942;29;20066;-78
2024/03/01 03:18:47;;;;;;;45.25;26.17;;;;;;;5.04;75.02;95634.31;4935903;29;20551;-78
2024/03/01 03:21:14;;;;;;;51.70;27.42;;;;;;;5.08;74.41;95636.41;4935596;29;20079;-78
2024/03/01 03:23:42;;;;;;;56.25;28.90;;;;;;;5.04;73.62;95627.38;4935741;29;20059;-78
2024/03/01 03:26:10;;;;;;;63.55;30.50;;;;;;;4.99;73.18;95626.28;4935726;29;20142;-78
2024/03/01 03:28:37;;;;;;;47.30;25.95;;;;;;;4.95;73.20;95633.56;4935655;29;20269;-78
2024/03/01 03:31:05;;;;;;;48.67;26.95;;;;;;;4.88;72.78;95638.63;4935237;29;20079;-78
2024/03/01 03:33:34;;;;;;;45.72;27.33;;;;;;;4.79;73.19;95641.38;4935325;29;20047;-78
2024/03/01 03:36:02;;;;;;;48.50;25.08;;;;;;;4.70;73.00;95643.22;4942757;29;20051;-78
2024/03/01 03:38:29;;;;;;;44.85;25.75;;;;;;;4.65;73.38;95645.50;4946294;29;20056;-78
2024/03/01 03:40:57;;;;;;;43.90;24.58;;;;;;;4.60;73.40;95648.59;4944070;29;20111;-78
2024/03/01 03:43:24;;;;;;;45.92;27.63;;;;;;;4.56;73.65;95649.09;4936692;29;20080;-78
2024/03/01 03:45:52;;;;;;;43.92;25.10;;;;;;;4.51;73.46;95645.22;4939611;29;20055;-78
2024/03/01 03:48:19;;;;;;;45.33;26.05;;;;;;;4.48;73.49;95660.25;4939398;29;20052;-78
2024/03/01 03:50:49;;;;;;;47.30;25.98;;;;;;;4.49;74.21;95652.34;4938872;29;20055;-78
2024/03/01 03:53:16;;;;;;;51.88;26.80;;;;;;;4.53;74.35;95658.78;4939189;29;20055;-78
2024/03/01 03:55:44;;;;;;;51.22;26.83;;;;;;;4.57;74.10;95655.84;4939094;29;20056;-78
2024/03/01 03:58:12;;;;;;;47.72;27.40;;;;;;;4.57;73.96;95664.44;4938957;29;20086;-78
2024/03/01 04:00:40;;;;;;;46.50;26.75;;;;;;;4.58;74.50;95662.66;4939048;29;20052;-78
2024/03/01 04:03:07;;;;;;;44.95;26.02;;;;;;;4.62;74.53;95658.75;4938207;29;20048;-78
2024/03/01 04:05:36;;;;;;;48.58;25.95;;;;;;;4.66;74.61;95665.22;4938775;29;20087;-78
2024/03/01 04:08:05;;;;;;;44.70;26.17;;;;;;;4.69;75.33;95670.81;4938580;29;20424;-78
2024/03/01 04:10:33;;;;;;;52.08;26.63;;;;;;;4.72;74.92;95672.25;4938297;29;20134;-78
2024/03/01 04:13:01;;;;;;;51.20;29.13;;;;;;;4.73;74.90;95668.72;4938427;29;20107;-78
2024/03/01 04:15:29;;;;;;;44.75;26.33;;;;;;;4.76;74.98;95670.97;4937802;29;20063;-78
2024/03/01 04:17:57;;;;;;;44.75;26.15;;;;;;;4.81;75.04;95671.28;4938777;29;20090;-78
2024/03/01 04:20:25;;;;;;;49.28;27.58;;;;;;;4.83;74.65;95674.50;4938754;29;20124;-78
2024/03/01 04:22:53;;;;;;;46.75;26.80;;;;;;;4.81;74.52;95671.28;4937922;29;20058;-79
2024/03/01 04:25:22;;;;;;;44.85;26.77;;;;;;;4.80;75.21;95674.81;4937836;29;20115;-78
2024/03/01 04:27:50;;;;;;;47.78;26.05;;;;;;;4.81;74.64;95675.63;4937685;29;20055;-78
2024/03/01 04:30:18;;;;;;;45.22;26.40;;;;;;;4.75;74.39;95677.13;4937919;29;20062;-78
2024/03/01 04:32:45;;;;;;;50.67;26.92;;;;;;;4.71;74.25;95686.16;4938222;29;20494;-78
2024/03/01 04:35:13;;;;;;;46.45;25.70;;;;;;;4.70;75.14;95692.28;4937388;29;20073;-78
2024/03/01 04:37:43;;;;;;;46.13;26.55;;;;;;;4.72;74.95;95682.59;4937559;29;20472;-78
2024/03/01 04:40:11;;;;;;;43.00;25.88;;;;;;;4.72;74.45;95695.50;4937850;29;20048;-78
2024/03/01 04:42:41;;;;;;;48.63;27.65;;;;;;;4.72;74.51;95703.25;4937646;29;20464;-77
2024/03/01 04:45:10;;;;;;;49.42;27.50;;;;;;;4.69;74.21;95708.78;4937511;29;20508;-78
2024/03/01 04:47:37;;;;;;;50.38;27.10;;;;;;;4.63;74.20;95710.25;4937739;29;20056;-78
2024/03/01 04:50:06;;;;;;;44.72;25.60;;;;;;;4.58;74.59;95712.53;4937773;29;20612;-78
2024/03/01 04:52:34;;;;;;;45.47;25.63;;;;;;;4.56;74.45;95716.25;4937554;29;20043;-78
2024/03/01 04:55:01;;;;;;;44.28;25.77;;;;;;;4.52;74.39;95713.97;4936271;29;20496;-78
2024/03/01 04:57:29;;;;;;;45.80;25.98;;;;;;;4.49;74.95;95719.47;4937917;29;20496;-78
2024/03/01 04:59:58;;;;;;;47.30;26.48;;;;;;;4.48;74.86;95725.63;4938093;29;20051;-78
2024/03/01 05:02:26;;;;;;;45.40;26.15;;;;;;;4.48;74.90;95728.22;4937719;29;20345;-78
2024/03/01 05:04:53;;;;;;;44.97;25.73;;;;;;;4.49;75.02;95729.03;4937770;29;20492;-78
2024/03/01 05:07:21;;;;;;;46.00;24.98;;;;;;;4.52;75.05;95726.09;4937280;29;20091;-78
2024/03/01 05:09:48;;;;;;;47.08;27.27;;;;;;;4.53;75.13;95727.72;4937186;29;20536;-78
2024/03/01 05:12:16;;;;;;;47.83;25.33;;;;;;;4.57;75.44;95735.94;4937223;29;20055;-78
2024/03/01 05:14:44;;;;;;;49.20;26.40;;;;;;;4.57;75.28;95735.94;4937259;29;20106;-78
2024/03/01 05:17:13;;;;;;;44.88;24.55;;;;;;;4.59;75.76;95745.16;4937706;29;20472;-78
2024/03/01 05:19:41;;;;;;;46.10;25.48;;;;;;;4.64;75.78;95747.22;4937112;29;20051;-78
2024/03/01 05:22:12;;;;;;;45.63;27.23;;;;;;;4.68;76.04;95748.47;4936874;29;20052;-78
2024/03/01 05:24:40;;;;;;;48.70;26.60;;;;;;;4.71;75.75;95753.34;4937897;29;20075;-77
2024/03/01 05:27:12;;;;;;;49.97;26.90;;;;;;;4.74;75.97;95742.66;4937383;29;20494;-78
2024/03/01 05:29:40;;;;;;;42.63;24.60;;;;;;;4.80;75.68;95751.53;4937346;29;20051;-78
2024/03/01 05:32:08;;;;;;;47.33;24.35;;;;;;;4.84;76.11;95758.78;4936379;29;20087;-78
2024/03/01 05:34:37;;;;;;;43.75;24.27;;;;;;;4.88;75.73;95760.06;4936475;29;20048;-78
2024/03/01 05:37:04;;;;;;;41.90;24.73;;;;;;;4.89;76.30;95751.31;4936913;29;20055;-78
2024/03/01 05:39:32;;;;;;;45.15;25.15;;;;;;;4.93;76.06;95747.44;4937134;29;20083;-78
2024/03/01 05:41:59;;;;;;;38.25;21.83;;;;;;;5.02;76.69;95753.38;4936498;29;20051;-78
2024/03/01 05:44:27;;;;;;;37.25;23.02;;;;;;;5.12;76.93;95748.81;4936308;29;20095;-78
2024/03/01 05:46:55;;;;;;;44.30;25.67;;;;;;;5.22;76.19;95756.38;4936019;29;20060;-78
2024/03/01 05:49:22;;;;;;;41.58;25.08;;;;;;;5.24;75.88;95757.00;4936379;29;20058;-78
2024/03/01 05:51:51;;;;;;;42.55;24.08;;;;;;;5.26;75.24;95757.63;4936249;29;20111;-78
2024/03/01 05:54:24;;;;;;;41.33;23.88;;;;;;;5.28;74.79;95768.63;4936127;29;20126;-78
2024/03/01 05:56:51;;;;;;;;;;;;;;;5.29;74.93;95770.25;4936318;29;20066;-78
2024/03/01 05:59:22;;;;;;;45.08;24.08;;;;;;;5.25;74.68;95774.16;4936013;29;19926;-78
2024/03/01 06:01:51;;;;;;;40.55;22.50;;;;;;;5.24;74.68;95776.88;4935886;29;20075;-78
2024/03/01 06:04:18;;;;;;;47.63;24.58;;;;;;;5.22;74.81;95773.66;4935813;29;20048;-78
2024/03/01 06:06:46;;;;;;;45.08;24.27;;;;;;;5.22;75.07;95766.72;4935648;29;20435;-78
2024/03/01 06:09:16;;;;;;;42.15;24.65;;;;;;;5.24;74.74;95776.88;4936328;29;20142;-78
2024/03/01 06:11:44;;;;;;;41.80;23.40;;;;;;;5.22;74.70;95774.47;4936114;29;20107;-77
2024/03/01 06:14:13;;;;;;;41.97;22.13;;;;;;;5.20;74.77;95779.00;4936156;29;20106;-78
2024/03/01 06:16:40;;;;;;;40.65;23.75;;;;;;;5.20;75.03;95773.03;4936075;29;20056;-78
2024/03/01 06:19:08;;;;;;;40.13;23.67;;;;;;;5.22;75.03;95765.91;4935846;29;20141;-78
2024/03/01 06:21:35;;;;;;;34.05;21.58;;;;;;;5.28;75.11;95773.78;4936550;29;20134;-78
2024/03/01 06:24:03;;;;;;;41.42;23.15;;;;;;;5.34;75.13;95765.38;4935823;29;20054;-78
2024/03/01 06:26:32;;;;;;;39.05;23.65;;;;;;;5.36;74.46;95768.59;4935590;29;20048;-78
2024/03/01 06:29:00;;;;;;;39.03;22.33;;;;;;;5.35;74.55;95769.56;4936180;29;20138;-81
2024/03/01 06:31:28;;;;;;;41.00;22.88;;;;;;;5.31;74.37;95768.31;4935657;29;20048;-78
2024/03/01 06:33:56;;;;;;;37.17;21.83;;;;;;;5.28;74.26;95771.22;4938254;28;20135;-77
2024/03/01 06:36:24;;;;;;;38.42;23.88;;;;;;;5.27;74.21;95768.78;4936396;29;20107;-78
2024/03/01 06:38:51;;;;;;;40.83;23.10;;;;;;;5.25;74.34;95765.59;4936737;29;20139;-78
2024/03/01 06:41:19;;;;;;;37.95;22.85;;;;;;;5.21;74.05;95765.13;4938767;29;20115;-78
2024/03/01 06:43:48;;;;;;;36.97;22.20;;;;;;;5.20;74.22;95763.47;4937348;29;20496;-78
2024/03/01 06:46:15;;;;;;;39.92;23.13;;;;;;;5.21;74.47;95757.34;4937095;29;20107;-79
2024/03/01 06:48:43;;;;;;;41.10;22.92;;;;;;;5.19;74.44;95759.31;4939818;29;20083;-78
2024/03/01 06:51:11;;;;;;;39.95;23.27;;;;;;;5.17;74.74;95753.50;4937554;29;20564;-78
2024/03/01 06:53:38;;;;;;;38.05;21.35;;;;;;;5.17;74.76;95753.50;4938025;29;20079;-77
2024/03/01 06:56:06;;;;;;;43.85;22.83;;;;;;;5.19;74.84;95761.09;4937472;29;20051;-78
2024/03/01 06:58:33;;;;;;;40.33;21.48;;;;;;;5.23;75.19;95754.59;4936975;29;20130;-78
2024/03/01 07:01:04;;;;;;;35.47;19.95;;;;;;;5.32;76.26;95754.38;4939835;29;20066;-78
2024/03/01 07:03:37;;;;;;;33.95;19.83;;;;;;;5.42;76.18;95755.94;4957857;29;20052;-76
2024/03/01 07:06:06;;;;;;;35.65;21.25;;;;;;;5.46;75.53;95762.41;4958139;29;20054;-76
2024/03/01 07:08:34;;;;;;;35.90;23.20;;;;;;;5.50;75.47;95754.13;4951187;29;20520;-76
2024/03/01 07:11:03;;;;;;;35.60;21.85;;;;;;;5.55;75.35;95757.03;4937951;29;20641;-76
2024/03/01 07:13:30;;;;;;;42.50;23.17;;;;;;;5.61;75.09;95741.78;4947215;29;20051;-77
2024/03/01 07:15:58;;;;;;;42.63;24.63;;;;;;;5.65;75.15;95751.59;4950227;29;20047;-77
2024/03/01 07:18:27;;;;;;;35.03;21.02;;;;;;;5.71;75.97;95740.56;4945558;29;20052;-76
2024/03/01 07:20:54;;;;;;;38.65;23.15;;;;;;;5.80;75.77;95748.28;4941491;29;20075;-77
2024/03/01 07:23:22;;;;;;;40.35;23.90;;;;;;;5.83;75.12;95750.53;4940616;29;20056;-77
2024/03/01 07:25:50;;;;;;;42.33;25.35;;;;;;;5.85;74.54;95754.53;4940519;29;20131;-77
2024/03/01 07:28:17;;;;;;;42.92;24.95;;;;;;;5.89;75.59;95747.25;4939994;29;20518;-77
2024/03/01 07:30:45;;;;;;;41.45;23.02;;;;;;;5.93;75.25;95743.34;4939325;29;20127;-78
2024/03/01 07:33:12;;;;;;;42.17;24.75;;;;;;;5.94;74.66;95747.53;4939181;29;20087;-77
2024/03/01 07:35:42;;;;;;;46.65;23.83;;;;;;;5.92;74.69;95752.06;4939315;29;20056;-77
2024/03/01 07:38:09;;;;;;;38.97;23.67;;;;;;;5.93;75.24;95749.31;4939015;29;20047;-77
2024/03/01 07:40:37;;;;;;;41.97;22.85;;;;;;;5.94;74.75;95750.13;4938921;29;20138;-77
2024/03/01 07:43:04;;;;;;;41.33;22.42;;;;;;;5.92;74.33;95754.66;4938625;29;20094;-77
2024/03/01 07:45:33;;;;;;;42.20;22.23;;;;;;;5.91;74.26;95751.28;4938314;29;20063;-77
2024/03/01 07:48:01;;;;;;;34.65;21.95;;;;;;;5.98;75.30;95756.59;4938254;29;20052;-77
2024/03/01 07:50:29;;;;;;;36.92;22.67;;;;;;;6.01;74.63;95756.22;4938725;29;20110;-77
2024/03/01 07:52:59;;;;;;;38.95;22.92;;;;;;;6.02;74.56;95762.25;4938031;29;20051;-77
2024/03/01 07:55:26;;;;;;;40.00;23.17;;;;;;;6.02;74.77;95757.84;4938179;29;20075;-77
2024/03/01 07:57:55;;;;;;;36.05;21.85;;;;;;;6.04;74.56;95757.69;4938110;29;20082;-77
2024/03/01 08:00:23;;;;;;;39.83;22.98;;;;;;;6.06;74.70;95761.72;4938172;29;20091;-77
2024/03/01 08:03:03;;;;;;;37.00;22.52;;;;;;;6.11;74.75;95751.63;4937981;29;20515;-77
2024/03/01 08:05:31;;;;;;;34.85;22.13;;;;;;;6.18;74.85;95757.72;4938112;29;20048;-77
2024/03/01 08:08:00;;;;;;;38.72;22.48;;;;;;;6.23;74.71;95756.38;4938124;29;20103;-77
2024/03/01 08:10:32;;;;;;;40.45;23.90;;;;;;;6.28;74.99;95767.84;4938138;29;20052;-77
2024/03/01 08:13:01;;;;;;;38.38;22.85;;;;;;;6.31;74.71;95772.66;4937918;29;20134;-76
2024/03/01 08:15:35;;;;;;;41.25;23.00;;;;;;;6.34;74.85;95766.31;4937919;29;20525;-77
2024/03/01 08:18:24;;;;;;;38.65;23.42;;;;;;;6.36;75.63;95774.72;4937928;29;20048;-76
2024/03/01 08:21:00;;;;;;;40.38;23.52;;;;;;;6.38;75.07;95770.16;4955992;29;20091;-77
2024/03/01 08:23:29;;;;;;;42.10;23.73;;;;;;;6.40;74.71;95771.59;4960864;29;20048;-75
2024/03/01 08:25:58;;;;;;;38.20;24.08;;;;;;;6.45;74.91;95768.50;4950944;29;20048;-77
2024/03/01 08:28:28;;;;;;;41.55;25.15;;;;;;;6.51;74.62;95782.53;4937570;29;20055;-76
2024/03/01 08:30:56;;;;;;;44.72;25.52;;;;;;;6.55;74.82;95784.59;4937235;29;20058;-77
2024/03/01 08:33:24;;;;;;;38.67;22.92;;;;;;;6.60;74.63;95778.88;4937339;29;20159;-77
2024/03/01 08:35:51;;;;;;;41.85;23.65;;;;;;;6.65;74.36;95780.94;4937194;29;20131;-76
2024/03/01 08:39:07;;;;;;;39.30;23.85;;;;;;;6.72;75.00;95780.06;4937791;29;20146;-77
2024/03/01 08:41:36;;;;;;;40.50;24.00;;;;;;;6.76;74.35;95775.34;4935379;29;20311;-76
2024/03/01 08:44:23;;;;;;;44.47;25.65;;;;;;;6.77;74.14;95776.94;4937449;29;20138;-77
2024/03/01 08:46:51;;;;;;;46.63;23.27;;;;;;;6.80;74.30;95776.59;4937896;29;20135;-77
2024/03/01 08:50:08;;;;;;;41.13;22.38;;;;;;;6.81;74.41;95773.00;4937887;29;20408;-76
2024/03/01 08:52:37;;;;;;;42.33;24.25;;;;;;;6.81;74.15;95773.81;4898749;29;20055;-77
2024/03/01 08:55:39;;;;;;;42.80;24.45;;;;;;;6.85;74.59;95783.84;4937180;29;20047;-76
2024/03/01 08:58:18;;;;;;;41.05;23.95;;;;;;;6.86;74.09;95777.66;4936880;29;20522;-77
2024/03/01 09:00:49;;;;;;;42.97;22.23;;;;;;;6.88;74.17;95778.28;4940182;29;20059;-77
2024/03/01 09:03:20;;;;;;;42.10;23.30;;;;;;;6.91;74.27;95783.91;4939226;29;20048;-77
2024/03/01 09:05:48;;;;;;;37.53;22.45;;;;;;;6.98;74.35;95790.00;4937390;29;20142;-77
2024/03/01 09:08:22;;;;;;;39.20;23.05;;;;;;;7.03;74.62;95786.06;4937548;29;20138;-77
2024/03/01 09:10:52;;;;;;;38.28;23.17;;;;;;;7.04;74.61;95785.88;4937217;29;20051;-76
2024/03/01 09:13:23;;;;;;;36.65;21.75;;;;;;;7.07;74.56;95788.13;4936422;29;20518;-77
2024/03/01 09:15:51;;;;;;;41.17;23.45;;;;;;;7.12;74.46;95785.78;4936772;29;20055;-76
2024/03/01 09:18:43;;;;;;;36.38;20.55;;;;;;;7.17;74.56;95783.47;4936934;29;20052;-76
2024/03/01 09:21:39;;;;;;;42.05;23.85;;;;;;;7.21;74.55;95789.09;4936544;29;20051;-76
2024/03/01 09:24:06;;;;;;;40.35;23.77;;;;;;;7.26;74.19;95796.31;4936242;29;20142;-76
2024/03/01 09:26:34;;;;;;;42.97;23.98;;;;;;;7.30;73.97;95789.78;4936430;29;20083;-77
2024/03/01 09:29:05;;;;;;;42.70;24.02;;;;;;;7.34;74.29;95798.81;4936823;29;20123;-77
2024/03/01 09:31:34;;;;;;;40.75;22.67;;;;;;;7.37;74.09;95798.47;4936331;29;20496;-77
2024/03/01 09:34:06;;;;;;;43.25;24.10;;;;;;;7.41;74.01;95800.53;4935911;29;20051;-77
2024/03/01 09:36:34;;;;;;;44.03;24.33;;;;;;;7.47;73.97;95795.59;4936126;29;20060;-77
2024/03/01 09:39:05;;;;;;;44.83;24.13;;;;;;;7.51;73.62;95802.03;4936374;29;20107;-76
2024/03/01 09:41:44;;;;;;;47.80;25.75;;;;;;;7.56;73.99;95797.09;4935610;29;20051;-77
2024/03/01 09:44:24;;;;;;;47.58;24.95;;;;;;;7.60;73.69;95800.94;4936207;29;20090;-77
2024/03/01 09:47:00;;;;;;;44.47;24.73;;;;;;;7.65;73.93;95801.16;4935784;29;20131;-77
2024/03/01 09:49:38;;;;;;;47.03;24.88;;;;;;;7.71;74.03;95797.84;4936198;29;20055;-77
2024/03/01 09:52:16;;;;;;;38.40;23.17;;;;;;;7.78;73.61;95801.34;4935949;29;20074;-76
2024/03/01 09:54:47;;;;;;;41.47;23.83;;;;;;;7.84;73.40;95800.59;4936103;29;20111;-77
2024/03/01 09:57:21;;;;;;;35.30;23.13;;;;;;;7.90;73.23;95799.06;4935837;29;20051;-77
2024/03/01 09:59:55;;;;;;;39.20;22.27;;;;;;;7.97;73.47;95810.31;4936001;29;20177;-77
2024/03/01 10:02:36;;;;;;;42.50;24.20;;;;;;;8.03;72.91;95813.97;4935737;29;20087;-77
2024/03/01 10:05:33;;;;;;;38.65;24.45;;;;;;;8.07;72.60;95820.41;4935427;29;20115;-78
2024/03/01 10:08:09;;;;;;;43.67;24.50;;;;;;;8.08;72.43;95811.63;4927565;29;20055;-77
2024/03/01 10:10:48;;;;;;;48.28;25.63;;;;;;;8.09;72.16;95810.63;4944695;29;20495;-78
2024/03/01 10:13:33;;;;;;;40.78;24.23;;;;;;;8.10;72.25;95804.44;4951250;29;20055;-78
2024/03/01 10:16:15;;;;;;;41.05;24.42;;;;;;;8.13;72.10;95801.47;4950148;29;20051;-77
2024/03/01 10:19:01;;;;;;;39.80;21.65;;;;;;;8.15;72.10;95802.09;4940316;29;20074;-77
2024/03/01 10:21:36;;;;;;;35.92;22.80;;;;;;;8.18;72.13;95806.13;4935824;29;20430;-77
2024/03/01 10:24:22;;;;;;;35.80;21.60;;;;;;;8.23;72.03;95804.56;4935336;29;20318;-77
2024/03/01 10:27:05;;;;;;;41.88;22.25;;;;;;;8.28;72.00;95813.59;4935189;29;20444;-77
2024/03/01 10:29:45;;;;;;;;;;;;;;;8.35;71.98;95806.66;4935882;29;20047;-77
2024/03/01 10:32:25;;;;;;;33.55;21.70;;;;;;;8.37;71.61;95812.47;4935538;29;20379;-77
2024/03/01 10:34:58;;;;;;;37.35;20.65;;;;;;;8.42;71.56;95818.75;4935522;29;20056;-77
2024/03/01 10:37:33;;;;;;;37.75;21.65;;;;;;;8.48;71.50;95817.19;4935600;29;20054;-77
2024/03/01 10:40:10;;;;;;;37.80;21.80;;;;;;;8.55;71.52;95810.25;4935251;29;20055;-77
2024/03/01 10:42:42;;;;;;;30.40;20.73;;;;;;;8.63;71.90;95811.91;4935137;29;20051;-77
2024/03/01 10:45:18;;;;;;;35.15;21.80;;;;;;;8.69;71.33;95808.56;4950505;29;20127;-77
2024/03/01 10:47:49;;;;;;;34.03;20.88;;;;;;;8.75;71.78;95820.81;4952515;29;20084;-77
2024/03/01 10:50:21;;;;;;;32.33;18.42;;;;;;;8.80;71.03;95809.84;4940783;29;20066;-78
2024/03/01 10:52:58;;;;;;;25.33;15.75;;;;;;;8.85;70.78;95807.47;4938975;29;20071;-78
2024/03/01 10:55:32;;;;;;;26.85;16.20;;;;;;;8.91;70.49;95800.72;4940466;29;20079;-77
2024/03/01 10:58:07;;;;;;;28.98;15.85;;;;;;;8.94;70.88;95801.13;4939867;29;20051;-77
2024/03/01 11:00:43;;;;;;;29.45;17.17;;;;;;;9.00;71.63;95805.56;4952088;29;20483;-77
2024/03/01 11:03:20;;;;;;;30.25;18.15;;;;;;;9.06;70.93;95804.78;4954282;29;20541;-78
2024/03/01 11:06:04;;;;;;;27.50;16.65;;;;;;;9.12;70.79;95799.81;4951662;29;20047;-78
2024/03/01 11:08:43;;;;;;;29.88;16.60;;;;;;;9.15;70.33;95799.44;4952239;29;20051;-78
2024/03/01 11:11:17;;;;;;;27.90;17.40;;;;;;;9.19;71.01;95800.66;4952503;29;20083;-78
2024/03/01 11:13:48;;;;;;;26.05;16.38;;;;;;;9.21;70.99;95798.69;4948878;29;20090;-78
2024/03/01 11:16:21;;;;;;;27.20;16.77;;;;;;;9.26;71.13;95796.28;4938792;29;20091;-78
2024/03/01 11:18:54;;;;;;;27.45;17.25;;;;;;;9.30;70.85;95794.91;4938976;29;20056;-78
2024/03/01 11:21:27;;;;;;;29.85;17.25;;;;;;;9.33;71.02;95791.91;4938954;29;20051;-78
2024/03/01 11:23:56;;;;;;;;;;;;;;;9.39;71.06;95791.16;4938871;29;20099;-77
2024/03/01 11:26:32;;;;;;;23.52;14.52;;;;;;;9.40;69.99;95790.16;4946648;29;19961;-78
2024/03/01 11:29:04;;;;;;;23.23;14.98;;;;;;;9.43;70.43;95789.75;4957930;29;20075;-78
2024/03/01 11:31:33;;;;;;;20.63;14.27;;;;;;;9.47;70.85;95790.19;4957386;29;20059;-77
2024/03/01 11:34:07;;;;;;;24.48;14.15;;;;;;;9.49;70.54;95783.78;4947228;29;20529;-77
2024/03/01 11:36:56;;;;;;;23.17;15.27;;;;;;;9.53;69.83;95789.38;4939554;29;20067;-77
2024/03/01 11:39:36;;;;;;;21.55;13.32;;;;;;;9.57;70.37;95785.41;4939404;29;20055;-78
2024/03/01 11:42:12;;;;;;;19.80;12.52;;;;;;;9.63;70.13;95783.84;4939435;29;20138;-80